This is the latest recevied weather packets stored in our database for station/object W1MWS-13. If no packets are shown the sender has not sent any weather packets the latest 10 day(s).
| Time | Temp. | Humidity | Pressure | Rain* | Wind** | Luminosity | Snow |
|---|---|---|---|---|---|---|---|
| 1777593218 | 11.11° C | 99% | 1006.5 hPa | 0 mm | - | - | - |
| 1777592049 | 11.11° C | 99% | 1006.6 hPa | 0 mm | - | - | - |
| 1777589904 | 11.67° C | 99% | 1006.3 hPa | 0 mm | - | - | - |
| 1777589599 | 11.11° C | 99% | 1006.2 hPa | 0 mm | - | - | - |
| 1777589296 | 11.11° C | 99% | 1006.2 hPa | 0 mm | - | - | - |
| 1777587496 | 11.67° C | 99% | 1006 hPa | 0 mm | - | - | - |
| 1777585105 | 11.67° C | 98% | 1006 hPa | 0 mm | - | - | - |
| 1777584217 | 12.22° C | 97% | 1005.9 hPa | 0 mm | - | - | - |
| 1777580900 | 12.22° C | 97% | 1005.9 hPa | 0 mm | - | - | - |
| 1777580304 | 12.22° C | 98% | 1006.1 hPa | 0 mm | - | - | - |
| 1777580000 | 12.22° C | 97% | 1006.1 hPa | 0 mm | - | - | - |
| 1777579396 | 11.67° C | 98% | 1006 hPa | 0 mm | - | - | - |
| 1777579101 | 11.67° C | 99% | 1006 hPa | 0.25 mm | - | - | - |
| 1777578804 | 11.67° C | 99% | 1006 hPa | 0.25 mm | - | - | - |
| 1777573107 | 11.11° C | 99% | 1006.6 hPa | 0 mm | - | - | - |
| 1777572804 | 11.11° C | 99% | 1006.6 hPa | 0 mm | - | - | - |
| 1777572501 | 10.56° C | 99% | 1006.9 hPa | 0 mm | - | - | - |
| 1777571004 | 10.56° C | 99% | 1007.2 hPa | 0.25 mm | - | - | - |
| 1777569204 | 10° C | 99% | 1007.4 hPa | 1.27 mm | - | - | - |
| 1777568012 | 10° C | 99% | 1007.4 hPa | 1.52 mm | - | - | - |
| 1777567702 | 10° C | 99% | 1007.4 hPa | 1.27 mm | - | - | - |
| 1777565311 | 10° C | 99% | 1007.5 hPa | 0.25 mm | - | - | - |
| 1777563213 | 10° C | 99% | 1007.5 hPa | 0.25 mm | - | - | - |
| 1777561097 | 9.44° C | 99% | 1007.9 hPa | 0.25 mm | - | - | - |
| 1777559896 | 9.44° C | 99% | 1007.9 hPa | 0.25 mm | - | - | - |
* Rain latest hour (hover to see other rain measurements)
** Current wind speed in m/s (hover to see current wind gust speed)